FW3223 Weather Reports


time (UTC)temp
C
wind
direction
speed
KPH
gust
KPH
rain 1hr
cm
rain 24hr
cm
rain mn
cm
humidity
%
barometer
mb
20200918110151 20 204 27.4 35.4 0.03 1.83 1.83 70 1008.3
20200918104614 20 199 27.4 37.0 0.03 1.83 1.83 71 1008.5
20200918103121 20 173 24.1 38.6 0.03 1.83 1.83 70 1008.3
20200918101623 20 167 27.4 41.8 0.18 1.83 1.83 71 1008.5
20200918094510 19 171 20.9 35.4 0.23 1.83 1.83 73 1008.1
20200918091633 19 188 22.5 45.1 0.13 1.65 1.65 72 1008.1
20200918090124 19 158 25.7 45.1 0.38 2.01 1.57 71 1008.3
20200918084717 19 191 19.3 46.7 1.24 2.01 1.57 71 1008.3
20200918083251 19 141 37.0 66.0 1.27 2.01 1.57 71 1007.9
20200918081636 18 100 24.1 45.1 1.30 1.96 1.55 73 1007.8
20200918080100 18 170 11.3 16.1 0.97 2.41 1.19 73 1008.0
20200918074521 19 139 27.4 40.2 0.10 1.55 0.33 71 1008.4
20200918073011 18 146 25.7 38.6 0.08 1.55 0.33 71 1008.3
20200918070205 18 128 16.1 30.6 0.00 1.65 0.23 71 1008.5
20200918064553 18 128 11.3 27.4 0.00 1.65 0.23 72 1008.4
20200918063318 18 110 11.3 24.1 0.00 1.65 0.23 72 1008.8
20200918061620 18 138 8.0 20.9 0.00 1.65 0.23 72 1008.7
20200918060022 18 91 14.5 27.4 0.23 1.65 0.23 72 1008.8
20200918054528 18 138 14.5 30.6 0.23 1.65 0.23 72 1008.8
20200918053026 17 120 11.3 22.5 0.23 1.65 0.23 74 1008.8
20200918051520 18 94 8.0 22.5 0.23 1.65 0.23 73 1008.9
20200918044610 18 105 16.1 24.1 0.03 1.42 0.03 72 1009.3
20200918043125 18 132 14.5 27.4 0.03 1.42 0.03 72 1009.6
20200918041810 18 105 12.9 33.8 0.00 1.42 0.00 71 1009.4
20200918040118 18 109 16.1 35.4 0.00 1.42 0.00 71 1009.5
20200918034634 19 168 20.9 37.0 0.00 1.42 0.00 70 1009.8
20200918033048 19 118 14.5 27.4 0.00 1.42 0.00 68 1009.8
20200918031535 19 138 12.9 22.5 0.00 1.42 0.00 68 1010.1
20200918030023 18 132 12.9 20.9 0.00 1.42 0.00 69 1010.3
20200918024526 18 108 3.2 12.9 0.00 1.42 0.00 68 1010.7
20200918023200 18 115 6.4 14.5 0.00 1.42 0.00 69 1011.0
20200918021722 18 119 6.4 16.1 0.00 1.42 0.00 69 1010.8
20200918020128 18 129 12.9 19.3 0.00 1.42 0.00 69 1011.0
20200918014617 18 117 12.9 24.1 0.00 1.42 0.00 70 1011.0
20200918013042 18 145 16.1 24.1 0.00 1.42 0.00 70 1011.1
20200918011546 18 153 14.5 22.5 0.00 1.42 0.00 70 1011.0
20200918010011 19 124 14.5 25.7 0.00 1.42 0.00 69 1011.5
20200918004505 19 150 14.5 24.1 0.00 1.42 0.00 69 1012.0
20200918003223 19 132 14.5 22.5 0.00 1.42 0.00 70 1012.0
20200918001610 19 146 14.5 27.4 0.00 1.42 0.00 70 1012.1
20200918000216 19 133 11.3 24.1 0.00 1.42 0.00 71 1012.1
20200917234608 19 123 11.3 22.5 0.00 1.42 0.00 70 1012.2
20200917233104 19 134 12.9 22.5 0.00 1.42 0.00 70 1012.2
20200917231555 19 121 16.1 27.4 0.00 1.42 0.00 70 1012.2
20200917230033 19 146 12.9 22.5 0.00 1.42 1.42 70 1012.3
20200917224522 19 153 16.1 25.7 0.00 1.42 1.42 70 1012.2
20200917223316 19 123 14.5 22.5 0.00 1.42 1.42 71 1012.5
20200917221651 19 150 12.9 20.9 0.00 1.42 1.42 71 1012.8
20200917220125 19 119 6.4 20.9 0.00 1.42 1.42 71 1012.9
20200917214619 19 126 4.8 14.5 0.00 1.42 1.42 71 1013.0
20200917213106 19 140 14.5 20.9 0.00 1.42 1.42 71 1013.3
20200917211648 19 109 6.4 12.9 0.00 1.42 1.42 71 1013.3
20200917210028 18 121 1.6 9.7 0.00 1.42 1.42 72 1013.4
20200917204517 19 85 1.6 9.7 0.00 1.42 1.42 72 1013.4
20200917203020 19 91 3.2 9.7 0.00 1.42 1.42 71 1013.4
20200917201523 19 119 3.2 12.9 0.00 1.42 1.42 71 1013.5
20200917194705 19 68 3.2 8.0 0.00 1.42 1.42 71 1013.1
20200917193142 19 122 3.2 11.3 0.00 1.42 1.42 71 1013.2
20200917191622 19 153 4.8 14.5 0.00 1.42 1.42 71 1013.4
20200917190129 19 155 4.8 11.3 0.00 1.42 1.42 70 1013.3
20200917184633 19 165 4.8 11.3 0.00 1.42 1.42 70 1013.1
20200917183047 20 183 3.2 6.4 0.00 1.42 1.42 70 1013.1
20200917181553 20 196 3.2 4.8 0.00 1.42 1.42 68 1013.3
20200917180020 20 192 1.6 6.4 0.00 1.42 1.42 67 1013.2
20200917174507 20 207 0.0 4.8 0.00 1.42 1.42 68 1013.0
20200917173445 20 205 1.6 6.4 0.00 1.42 1.42 67 1013.2
20200917171659 20 197 4.8 8.0 0.00 1.42 1.42 67 1013.3
20200917170143 20 205 1.6 4.8 0.00 1.42 1.42 66 1013.0
20200917164609 20 192 1.6 4.8 0.00 1.42 1.42 67 1013.0
20200917163055 20 232 3.2 4.8 0.00 1.42 1.42 69 1012.9
20200917161601 20 242 4.8 8.0 0.00 1.42 1.42 68 1013.1
20200917160024 20 255 6.4 12.9 0.00 1.42 1.42 69 1013.4
20200917154548 20 264 11.3 16.1 0.00 1.42 1.42 68 1013.5
20200917153038 20 247 12.9 16.1 0.00 1.42 1.42 67 1013.6
20200917151521 20 242 11.3 14.5 0.00 1.42 1.42 67 1013.7
20200917150241 20 261 9.7 16.1 0.00 1.42 1.42 67 1013.8
20200917144640 20 252 12.9 17.7 0.00 1.42 1.42 67 1014.0
20200917143116 20 241 11.3 16.1 0.00 1.42 1.42 69 1013.9
20200917141615 20 248 11.3 14.5 0.00 1.42 1.42 69 1013.9
20200917140104 20 232 8.0 11.3 0.00 1.42 1.42 68 1013.9
20200917134523 20 221 8.0 12.9 0.00 1.42 1.42 70 1014.1
20200917133027 19 230 14.5 19.3 0.00 1.42 1.42 70 1014.2
20200917131525 20 235 8.0 16.1 0.00 1.42 1.42 70 1014.2
20200917124626 19 227 16.1 19.3 0.00 1.42 1.42 70 1014.3
20200917123156 20 241 12.9 25.7 0.00 1.42 1.42 70 1014.4
20200917121632 20 215 11.3 19.3 0.00 1.42 1.42 70 1014.4
20200917120035 20 233 9.7 16.1 0.00 1.42 1.42 70 1014.6
20200917114538 20 188 9.7 17.7 0.00 1.42 1.42 70 1014.3
20200917113038 20 241 12.9 27.4 0.00 1.42 1.42 71 1014.3
20200917111541 20 171 16.1 29.0 0.00 1.42 1.42 71 1014.1